Iwakuni, Japan
Current Conditions -  °F | °C
As of 3:41 AM on Monday 22 Dec 2014 (Local Time) from RJOI Reporting Station
Scattered Clouds Scattered Clouds  
Wind Chill: 29°   Ceiling: Unl
Heat Index: 36°   Visibility: 6mi
Dew Point: 30°   Wind: 8mph
Humidity: 81%   Direction: 310°NW
Pressure: 30.09"   Gusts: NA
Location:  34.17°N, 132.23°E
Report Text: RJOI 211841Z 31007KT 9999 FEW010 SCT030 02/M01 A3009 RMK SLP190
Loading
Personal Weather Stations






























Interactive Weather Map New forecast layout! Learn more

10-Day Weather Forecast

Advertisements
Track Severe Weather on mobile